createdAt,value
2019-01-23T00:01:34.105Z,22.4
2019-01-23T00:06:39.157Z,22.4
2019-01-23T00:11:44.896Z,22.3
2019-01-23T00:16:50.600Z,22.3
2019-01-23T00:21:55.709Z,22.3
2019-01-23T00:27:00.829Z,22.3
2019-01-23T00:32:05.980Z,22.3
2019-01-23T00:37:11.045Z,22.2
2019-01-23T00:42:16.129Z,22.2
2019-01-23T00:47:21.234Z,22.2
2019-01-23T00:52:26.403Z,22.2
2019-01-23T00:57:31.572Z,22.2
2019-01-23T01:02:36.644Z,22.2
2019-01-23T01:07:41.724Z,22.1
2019-01-23T01:12:47.060Z,22.2
2019-01-23T01:17:52.085Z,22.1
2019-01-23T01:22:56.497Z,22.1
2019-01-23T01:28:02.161Z,22.1
2019-01-23T01:33:07.232Z,22.1
2019-01-23T01:38:12.575Z,22.1
2019-01-23T01:43:18.146Z,22.1
2019-01-23T01:48:23.056Z,22.1
2019-01-23T01:53:29.319Z,22
2019-01-23T01:58:34.638Z,22
2019-01-23T02:03:40.378Z,22
2019-01-23T02:08:45.565Z,22
2019-01-23T02:13:50.877Z,22
2019-01-23T02:18:56.700Z,22
2019-01-23T02:24:02.084Z,21.9
2019-01-23T02:29:11.455Z,21.9
2019-01-23T02:39:11.240Z,21.9
2019-01-23T02:44:17.292Z,21.9
2019-01-23T02:49:22.461Z,21.9
2019-01-23T02:54:28.237Z,21.9
2019-01-23T02:59:33.788Z,21.9
2019-01-23T03:04:39.056Z,21.9
2019-01-23T03:14:47.586Z,21.9
2019-01-23T03:19:53.050Z,21.8
2019-01-23T03:24:58.416Z,21.8
2019-01-23T03:30:03.440Z,21.8
2019-01-23T03:35:09.436Z,21.8
2019-01-23T03:40:14.951Z,21.8
2019-01-23T03:45:20.419Z,21.8
2019-01-23T03:50:26.180Z,21.8
2019-01-23T03:55:31.960Z,21.8
2019-01-23T04:00:37.267Z,21.8
2019-01-23T04:05:43.562Z,21.8
2019-01-23T04:10:49.105Z,21.8
2019-01-23T04:15:54.509Z,21.8
2019-01-23T04:21:00.314Z,21.8
2019-01-23T04:26:06.033Z,21.8
2019-01-23T04:31:11.522Z,21.7
2019-01-23T04:36:16.877Z,21.7
2019-01-23T04:41:22.372Z,21.7
2019-01-23T04:46:26.872Z,21.8
2019-01-23T04:51:32.820Z,21.9
2019-01-23T04:56:38.451Z,22
2019-01-23T05:01:44.162Z,22.1
2019-01-23T05:06:49.521Z,22.1
2019-01-23T05:11:54.783Z,22.2
2019-01-23T05:17:00.372Z,22.2
2019-01-23T05:22:06.005Z,22.3
2019-01-23T05:27:11.837Z,22.3
2019-01-23T05:32:17.691Z,22.4
2019-01-23T05:37:23.511Z,22.4
2019-01-23T05:42:29.062Z,22.5
2019-01-23T05:47:35.356Z,22.6
2019-01-23T06:02:50.003Z,22.7
2019-01-23T06:12:58.591Z,22.7
2019-01-23T06:18:03.916Z,22.7
2019-01-23T06:23:09.026Z,22.7
2019-01-23T06:28:14.458Z,22.8
2019-01-23T06:33:19.875Z,22.9
2019-01-23T06:38:25.676Z,22.9
2019-01-23T06:43:31.204Z,23
2019-01-23T06:48:36.574Z,23.1
2019-01-23T06:53:42.089Z,23.2
2019-01-23T06:58:47.952Z,23.3
2019-01-23T07:03:53.099Z,23.4
2019-01-23T07:08:58.800Z,23.5
2019-01-23T07:14:04.395Z,23.5
2019-01-23T07:19:09.972Z,23.5
2019-01-23T07:24:15.184Z,23.5
2019-01-23T07:29:21.012Z,23.5
2019-01-23T07:34:26.521Z,23.5
2019-01-23T07:39:34.326Z,23.6
2019-01-23T07:44:40.160Z,23.6
2019-01-23T07:49:45.896Z,23.6
2019-01-23T07:54:51.033Z,23.6
2019-01-23T07:59:56.608Z,23.7
2019-01-23T08:05:01.922Z,23.7
2019-01-23T08:10:07.663Z,23.7
2019-01-23T08:15:13.292Z,23.7
2019-01-23T08:20:19.079Z,23.6
2019-01-23T08:25:26.202Z,23.6
2019-01-23T08:30:40.903Z,23.5
2019-01-23T08:35:36.479Z,23.5
2019-01-23T08:40:41.807Z,23.6
2019-01-23T08:45:48.252Z,23.5
2019-01-23T08:50:54.167Z,23.5
2019-01-23T08:55:59.549Z,23.5
2019-01-23T09:01:05.518Z,23.5
2019-01-23T09:06:10.901Z,23.5
2019-01-23T09:11:15.926Z,23.5
2019-01-23T09:16:21.263Z,23.5
2019-01-23T09:21:26.639Z,23.4
2019-01-23T09:26:31.723Z,23.5
2019-01-23T09:31:37.061Z,23.5
2019-01-23T09:36:42.456Z,23.4
2019-01-23T09:41:47.484Z,23.4
2019-01-23T09:51:56.759Z,23.3
2019-01-23T09:57:01.801Z,23.3
2019-01-23T10:02:07.559Z,23.2
2019-01-23T10:07:12.576Z,23.2
2019-01-23T10:12:18.794Z,23.2
2019-01-23T10:17:23.927Z,23.2
2019-01-23T10:22:31.728Z,23.2
2019-01-23T10:27:37.391Z,23.3
2019-01-23T10:32:45.501Z,23.4
2019-01-23T10:37:50.528Z,23.4
2019-01-23T10:42:56.840Z,23.4
2019-01-23T10:48:01.937Z,23.4
2019-01-23T10:53:11.806Z,23.5
2019-01-23T10:58:16.922Z,23.5
2019-01-23T11:03:22.195Z,23.5
2019-01-23T11:08:28.860Z,23.4
2019-01-23T11:13:34.569Z,23.4
2019-01-23T11:23:43.722Z,23.3
2019-01-23T11:28:50.022Z,23.2
2019-01-23T11:33:55.709Z,23.2
2019-01-23T11:39:00.722Z,23.2
2019-01-23T11:44:06.290Z,23.2
2019-01-23T11:49:12.231Z,23.1
2019-01-23T11:54:17.475Z,23.1
2019-01-23T11:59:23.996Z,23.1
2019-01-23T12:04:30.220Z,23.1
2019-01-23T12:09:35.355Z,23.1
2019-01-23T12:14:40.914Z,23.1
2019-01-23T12:19:44.657Z,23.2
2019-01-23T12:24:50.779Z,23.3
2019-01-23T12:29:56.519Z,23.2
2019-01-23T12:35:02.316Z,23.3
2019-01-23T12:40:10.505Z,23.3
2019-01-23T12:50:22.097Z,23.2
2019-01-23T12:55:27.377Z,23.2
2019-01-23T13:00:32.598Z,23.1
2019-01-23T13:05:38.290Z,23.1
2019-01-23T13:10:43.933Z,23.1
2019-01-23T13:20:54.496Z,23
2019-01-23T13:25:59.828Z,23
2019-01-23T13:31:06.017Z,22.9
2019-01-23T13:36:11.921Z,22.9
2019-01-23T13:41:17.035Z,22.9
2019-01-23T13:46:22.643Z,22.9
2019-01-23T13:51:28.401Z,22.9
2019-01-23T13:56:34.623Z,22.9
2019-01-23T14:01:40.367Z,22.9
2019-01-23T14:06:47.672Z,22.9
2019-01-23T14:11:53.096Z,22.9
2019-01-23T14:16:58.460Z,22.9
2019-01-23T14:22:03.403Z,22.9
2019-01-23T14:27:10.457Z,22.9
2019-01-23T14:32:19.895Z,22.9
2019-01-23T14:37:25.329Z,22.9
2019-01-23T14:42:31.356Z,22.9
2019-01-23T14:47:37.524Z,22.9
2019-01-23T14:52:44.259Z,22.8
2019-01-23T14:57:50.418Z,22.9
2019-01-23T15:02:55.684Z,22.8
2019-01-23T15:08:04.571Z,22.8
2019-01-23T15:13:05.050Z,22.9
2019-01-23T15:18:11.275Z,22.9
2019-01-23T15:23:17.154Z,22.8
2019-01-23T15:28:22.230Z,22.8
2019-01-23T15:33:27.542Z,23
2019-01-23T15:38:33.461Z,23
2019-01-23T15:43:38.529Z,23
2019-01-23T15:48:44.751Z,22.9
2019-01-23T15:53:50.833Z,22.9
2019-01-23T16:04:00.808Z,22.9
2019-01-23T16:14:10.544Z,23.1
2019-01-23T16:19:16.273Z,23
2019-01-23T16:24:21.900Z,23
2019-01-23T16:29:27.029Z,23
2019-01-23T16:34:32.164Z,23
2019-01-23T16:39:38.295Z,23
2019-01-23T16:44:44.144Z,23.1
2019-01-23T16:49:50.916Z,23.3
2019-01-23T16:54:55.106Z,23.3
2019-01-23T17:00:00.693Z,23.3
2019-01-23T17:05:06.069Z,23.3
2019-01-23T17:10:12.309Z,23.3
2019-01-23T17:15:18.763Z,23.4
2019-01-23T17:20:22.685Z,23.4
2019-01-23T17:25:27.791Z,23.4
2019-01-23T17:30:33.196Z,23.4
2019-01-23T17:35:38.732Z,23.4
2019-01-23T17:40:44.525Z,23.3
2019-01-23T17:45:50.160Z,23.4
2019-01-23T17:50:56.009Z,23.3
2019-01-23T17:56:03.030Z,23.1
2019-01-23T18:01:10.477Z,23.1
2019-01-23T18:06:09.931Z,23.1
2019-01-23T18:11:15.086Z,23.1
2019-01-23T18:16:20.973Z,23.1
2019-01-23T18:21:29.541Z,23.1
2019-01-23T18:26:39.476Z,23.1
2019-01-23T18:31:45.146Z,23.1
2019-01-23T18:36:47.345Z,19.8
2019-01-23T18:41:53.765Z,18.2
2019-01-23T18:46:59.452Z,18.1
2019-01-23T18:52:08.319Z,19.9
2019-01-23T18:57:16.497Z,20.4
2019-01-23T19:02:22.040Z,20.4
2019-01-23T19:07:29.637Z,20.7
2019-01-23T19:12:34.987Z,21
2019-01-23T19:17:40.829Z,21.2
2019-01-23T19:22:46.536Z,21.5
2019-01-23T19:27:52.432Z,21.8
2019-01-23T19:32:57.797Z,22
2019-01-23T19:38:03.648Z,22.3
2019-01-23T19:43:09.123Z,22.5
2019-01-23T19:48:15.029Z,22.7
2019-01-23T19:53:21.290Z,22.8
2019-01-23T19:58:26.948Z,23
2019-01-23T20:03:32.599Z,23.1
2019-01-23T20:08:38.300Z,23.1
2019-01-23T20:13:44.368Z,23.1
2019-01-23T20:18:49.493Z,23.1
2019-01-23T20:23:55.311Z,23.2
2019-01-23T20:29:00.998Z,23.2
2019-01-23T20:34:06.236Z,23.2
2019-01-23T20:39:16.840Z,23.2
2019-01-23T20:44:12.113Z,23.2
2019-01-23T20:49:17.063Z,23.3
2019-01-23T20:54:22.042Z,23.2
2019-01-23T20:59:29.270Z,23.2
2019-01-23T21:04:35.407Z,23.2
2019-01-23T21:09:40.935Z,23.1
2019-01-23T21:14:47.263Z,23.1
2019-01-23T21:19:53.018Z,23.1
2019-01-23T21:24:58.248Z,23.2
2019-01-23T21:30:03.314Z,23.1
2019-01-23T21:35:09.117Z,23.1
2019-01-23T21:40:14.571Z,23
2019-01-23T21:45:19.980Z,23
2019-01-23T21:50:25.653Z,23
2019-01-23T21:55:31.802Z,23
2019-01-23T22:00:36.984Z,22.9
2019-01-23T22:05:42.826Z,22.9
2019-01-23T22:10:48.764Z,22.9
2019-01-23T22:15:54.161Z,22.8
2019-01-23T22:20:59.579Z,22.8
2019-01-23T22:26:04.649Z,22.8
2019-01-23T22:31:09.636Z,22.8
2019-01-23T22:36:15.319Z,22.8
2019-01-23T22:41:21.112Z,22.8
2019-01-23T22:46:27.253Z,22.7
2019-01-23T22:51:32.654Z,22.7
2019-01-23T22:56:38.585Z,22.7
2019-01-23T23:01:43.712Z,22.7
2019-01-23T23:06:48.906Z,22.7
2019-01-23T23:11:54.498Z,22.7
2019-01-23T23:17:00.149Z,22.6
2019-01-23T23:22:05.852Z,22.6
2019-01-23T23:27:11.760Z,22.6
2019-01-23T23:32:17.343Z,22.6
2019-01-23T23:37:23.208Z,22.6
2019-01-23T23:42:28.247Z,22.6
2019-01-23T23:47:33.592Z,22.6
2019-01-23T23:52:39.106Z,22.5
2019-01-23T23:57:44.782Z,22.5
